Espyville, Pennsylvania
Current Conditions -  °F | °C
As of 4:34 AM on Friday 19 Dec 2014 (Local Time) from KGKJ Reporting Station
Haze Haze  
Wind Chill: -7°   Ceiling: 600
Heat Index: -3°   Visibility: 4mi
Dew Point: -4°   Wind: 7mph
Humidity: 92%   Direction: 290°WNW
Pressure: 30.1"   Gusts: NA
Location:  41.6811°N, 80.4288°W
Report Text: KGKJ 190934Z AUTO 29006KT 4SM BR BKN006 OVC011 M03/M04 A3010 RMK AO2 CIG 004V008 I1001 T10281039 TSNO
Loading
Personal Weather Stations






























Interactive Weather Map New forecast layout! Learn more

10-Day Weather Forecast

Advertisements
Track Severe Weather on mobile